Brewer, Maine
Current Conditions -  °F | °C
As of 8:53 PM on Saturday 22 Nov 2014 (Local Time) from KBGR Reporting Station
Overcast Overcast  
Wind Chill: 28°   Ceiling: 4900
Heat Index: 34°   Visibility: 10mi
Dew Point: 12°   Wind: 7mph
Humidity: 40%   Direction: 180°S
Pressure: 29.92"   Gusts: NA
Location:  44.8°N, 68.76°W
Report Text: KBGR 230153Z 18006KT 10SM OVC049 01/M11 A2992 RMK AO2 SLP135 T00111111
Loading
Personal Weather Stations






























Interactive Weather Map New forecast layout! Learn more

10-Day Weather Forecast

Advertisements
Track Severe Weather on mobile